Bear Creek Observed Data For Previous 48 Hours

Caption
Day and Hour Reservoir Elevation (behind dam)* Tailwater Elevation (below dam)* Average Hourly Discharge*
4/22/2018 1 AM CDT 578.88 544.40 1,223
4/22/2018 2 AM CDT 578.77 544.38 1,218
4/22/2018 3 AM CDT 578.66 544.37 1,215
4/22/2018 4 AM CDT 578.54 544.34 1,208
4/22/2018 5 AM CDT 578.42 544.33 1,205
4/22/2018 6 AM CDT 578.31 544.33 1,205
4/22/2018 7 AM CDT 578.19 544.30 1,197
4/22/2018 8 AM CDT 578.07 544.29 1,194
4/22/2018 9 AM CDT 577.95 544.29 1,194
4/22/2018 10 AM CDT 577.83 544.28 1,192
4/22/2018 11 AM CDT 577.71 544.26 1,186
4/22/2018 12 PM CDT 577.59 544.25 1,184
4/22/2018 1 PM CDT 577.47 544.22 1,176
4/22/2018 2 PM CDT 577.35 544.21 1,173
4/22/2018 3 PM CDT 577.24 544.17 1,162
4/22/2018 4 PM CDT 577.14 544.15 1,157
4/22/2018 5 PM CDT 577.05 544.14 1,155
4/22/2018 6 PM CDT 576.96 544.16 1,160
4/22/2018 7 PM CDT 576.88 544.19 1,168
4/22/2018 8 PM CDT 576.85 544.42 1,229
4/22/2018 9 PM CDT 576.90 545.00 1,383
4/22/2018 10 PM CDT 577.03 545.45 1,505
4/22/2018 11 PM CDT 577.17 545.53 1,526
4/23/2018 12 AM CDT 577.32 545.32 1,470
4/23/2018 1 AM CDT 577.48 545.13 1,418
4/23/2018 2 AM CDT 577.68 544.97 1,375
4/23/2018 3 AM CDT 577.90 544.87 1,348
4/23/2018 4 AM CDT 578.13 544.79 1,327
4/23/2018 5 AM CDT 578.36 544.73 1,311
4/23/2018 6 AM CDT 578.58 544.69 1,300
4/23/2018 7 AM CDT 578.79 544.67 1,295
4/23/2018 8 AM CDT 578.97 544.65 1,290
4/23/2018 9 AM CDT 579.13 544.63 1,284
4/23/2018 10 AM CDT 579.28 544.62 1,282
4/23/2018 11 AM CDT 579.41 544.62 1,282
4/23/2018 12 PM CDT 579.53 544.61 1,279
4/23/2018 1 PM CDT 579.63 544.58 1,271
4/23/2018 2 PM CDT 579.73 544.57 1,268
4/23/2018 3 PM CDT 579.82 544.55 1,263
4/23/2018 4 PM CDT 579.91 544.55 1,263
4/23/2018 5 PM CDT 579.99 544.55 1,263
4/23/2018 6 PM CDT 580.06 544.55 1,263
4/23/2018 7 PM CDT 580.14 544.54 1,260
4/23/2018 8 PM CDT 580.20 544.53 1,258
4/23/2018 9 PM CDT 580.27 544.54 1,260
4/23/2018 10 PM CDT 580.33 544.52 1,255
4/23/2018 11 PM CDT 580.39 544.52 1,255
4/24/2018 12 AM CDT 580.44 544.53 1,258
4/24/2018 1 AM CDT 580.49 544.54 1,260
4/24/2018 2 AM CDT 580.54 544.54 1,260
4/24/2018 3 AM CDT 580.59 544.54 1,260
4/24/2018 4 AM CDT 580.63 544.55 1,263
4/24/2018 5 AM CDT 580.67 544.55 1,263
4/24/2018 6 AM CDT 580.71 544.55 1,263
4/24/2018 7 AM CDT 580.75 544.56 1,266
4/24/2018 8 AM CDT 580.78 544.55 1,263
4/24/2018 9 AM CDT 580.81 544.56 1,266
4/24/2018 10 AM CDT 580.84 544.55 1,263
4/24/2018 11 AM CDT 580.87 544.55 1,263
4/24/2018 12 PM CDT 580.90 544.55 1,263
4/24/2018 1 PM CDT 580.92 544.55 1,263
4/24/2018 2 PM CDT 580.94 544.55 1,263
4/24/2018 3 PM CDT 580.96 544.53 1,258
4/24/2018 4 PM CDT 580.98 544.51 1,253
4/24/2018 5 PM CDT 581.00 544.51 1,253
4/24/2018 6 PM CDT 581.02 544.51 1,253
4/24/2018 7 PM CDT 581.04 544.49 1,247
4/24/2018 8 PM CDT 581.05 544.50 1,250

Elevations are in feet above sea level. Discharges are in cubic feet per second and are reported at the end of the hour.